CDT,Max TemperatureF,Mean TemperatureF,Min TemperatureF,Max Dew PointF,MeanDew PointF,Min DewpointF,Max Humidity, Mean Humidity, Min Humidity, Max Sea Level PressureIn, Mean Sea Level PressureIn, Min Sea Level PressureIn, Max VisibilityMiles, Mean VisibilityMiles, Min VisibilityMiles, Max Wind SpeedMPH, Mean Wind SpeedMPH, Max Gust SpeedMPH,PrecipitationIn, CloudCover, Events, WindDirDegrees
2013-8-1,78,60,44,57,48,44,100,75,36,30.01,29.96,29.88,10,8,1,8,1,,0.00,2,,280
2013-8-2,77,60,44,56,49,43,100,85,38,30.05,29.89,29.85,10,5,0,8,1,,0.00,2,Fog,330
2013-8-3,75,57,39,52,44,37,100,82,34,30.22,30.11,30.06,10,6,0,7,1,17,0.00,3,Fog,290
2013-8-4,71,55,39,53,46,37,100,76,44,30.27,30.20,30.06,10,9,2,7,1,,0.00,2,,156
2013-8-5,73,62,52,64,59,49,100,89,73,30.05,29.91,29.81,10,8,2,8,2,,0.42,7,Rain,192
2013-8-6,75,68,60,64,61,57,100,87,53,29.83,29.79,29.71,10,8,1,7,2,,0.34,6,Rain-Thunderstorm,228
2013-8-7,73,60,46,61,55,46,100,83,37,30.05,29.87,29.76,10,8,0,7,1,,0.01,5,Fog,340
2013-8-8,73,58,42,57,50,39,97,78,48,30.07,30.03,29.99,10,10,10,8,1,21,0.00,4,,245
2013-8-9,73,58,46,54,50,45,100,80,41,30.12,30.03,29.99,10,7,0,7,1,17,0.00,6,Fog,-1
2013-8-10,73,62,48,55,52,47,97,73,42,30.19,30.16,30.12,10,10,10,6,1,,0.00,6,,217
2013-8-11,77,58,42,59,50,40,97,73,40,30.14,30.08,30.02,10,10,10,6,1,,0.00,3,,210
2013-8-12,77,60,44,61,53,43,100,80,42,30.12,30.03,29.99,10,8,0,10,2,17,0.11,3,Fog-Rain,11
2013-8-13,70,52,35,51,41,35,100,83,39,30.23,30.16,30.11,10,6,0,7,1,,0.00,4,Fog,36
2013-8-14,73,54,36,52,43,35,97,74,38,30.25,30.20,30.13,10,9,1,6,1,,0.00,3,,245
2013-8-15,79,61,44,56,48,42,97,68,35,30.15,30.12,30.09,10,10,10,7,1,,0.00,3,,250
2013-8-16,82,61,42,58,50,42,100,74,32,30.19,30.17,30.15,10,9,1,8,1,,0.00,1,,210
2013-8-17,80,62,45,57,51,43,97,67,39,30.23,30.18,30.12,10,9,4,12,3,22,0.00,0,,204
2013-8-18,81,63,46,57,53,46,97,64,36,30.18,30.10,30.02,10,10,6,12,3,24,0.00,0,,204
2013-8-19,84,74,64,65,61,57,78,67,49,30.03,29.97,29.93,10,10,10,10,5,17,0.00,3,,197
2013-8-20,89,78,66,70,66,63,87,68,48,29.95,29.91,29.86,10,10,10,12,6,23,0.00,1,,194
2013-8-21,86,72,57,75,68,56,96,81,41,30.05,29.91,29.85,10,9,2,8,4,,0.01,4,Rain-Thunderstorm,196
2013-8-22,82,66,48,59,49,40,96,61,24,30.18,30.13,30.04,10,10,10,8,2,,0.01,0,,38
2013-8-23,84,60,39,61,47,38,97,68,24,30.21,30.15,30.09,10,9,1,8,1,,0.00,0,,166
2013-8-24,86,74,64,70,65,60,84,71,53,30.15,30.06,29.95,10,10,10,17,7,24,0.01,2,,176
2013-8-25,96,85,75,73,70,69,82,65,43,30.01,29.97,29.92,10,10,9,13,8,22,0.00,0,,203
2013-8-26,88,78,69,77,72,69,100,87,62,30.02,29.97,29.89,10,7,0,10,5,23,3.47,6,Fog-Rain-Thunderstorm,167
2013-8-27,86,73,62,72,70,63,100,85,59,29.96,29.87,29.83,10,9,1,7,2,,0.02,5,Rain,34
2013-8-28,86,72,59,69,63,57,100,88,40,30.06,30.00,29.96,10,5,0,5,0,,0.00,2,Fog,77
2013-8-29,86,74,64,73,68,63,97,84,66,30.06,29.97,29.85,10,9,0,17,4,33,0.82,5,Fog-Rain-Thunderstorm,146
2013-8-30,80,70,57,70,64,58,100,81,50,29.97,29.91,29.83,10,9,3,13,3,18,0.00,5,,44
2013-8-31,82,66,50,66,59,48,100,85,54,29.93,29.87,29.73,10,7,1,9,1,29,0.43,2,Rain-Thunderstorm,197